Portada
METAR-TAF:

METAR-TAF

Aeroports :

Santander, Espanya

latitud: 43-26N, longitud: 003-49W, altitud: 6 m

Observació

L'informe es va fer fa 41 minuts, a les 00:00 UTC
Vent calma
Temperatura 8°C
Humitat 100%
Pressió 1031 hPa
Visibilitat: 4100 m
boirina

METAR: LEXJ 220000Z AUTO 00000KT 4100 BR NCD 08/08 Q1031

Hora: 01:41 (00:41 UTC)

Pronòstic

L'informe es va fer fa 4 hores i 41 minuts, a les 20:00 UTC
Pronòstic vàlid del 21 a les 21 UTC al 22 a les 21 UTC
Vent 4 kt amb direcció variable
Visibilitat 10 km o més
sense núvols per sota de 1500 mi sense presència de cumulonimbus.
Probabilitat 40% :
Temporalment
l' 22 a les 10 UTC al 22 a les 16 UTC
Vent 10 kt del Oest

TAF: LEXJ 212000Z 2121/2221 VRB04KT CAVOK TX16/2214Z TN07/2207Z PROB40 TEMPO 2210/2216 28010KT

Observacions i pronòstics meteorològics de més de 4000 aeroports (METAR i TAF).

Les estacions disponibles són els punts grocs i vermells al mapa.

Posi el ratolí al punt desitjat per veure el nom de l'estació.

Feu clic per veure les observacions i els pronòstics meteorològics.

Per canviar el mapa: feu clic els botons verds amb una creu de color negre per apropar; al botó verd amb un guió per allunyar la imatge; o en les fletxes verdes per a mapes adjacents.


METAR-TAF: